Sabana De La Mar, Dominican Republic

10:16 PM AST on July 27, 2016 (GMT -0400)
Marina Puerto Bahia | | Change Station

Elev 105 ft 19.20 °N, 69.35 °W | Updated 8 seconds ago

Partly Cloudy
Partly Cloudy
85.8 °F
Feels Like 104 °F
N
1.1
Wind Variable Wind from NE
Gusts 2.5 mph

Today
High -- | Low -- °F
--% Chance of Precip.
Yesterday
High -- | Low -- °F
Precip. -- in
Pressure 30.01 in
Visibility 6.2 miles
Clouds Few 1800 ft
Heat Index 104 °F
Dew Point 82 °F
Humidity 89%
Rainfall 0.11 in
Snow Depth Not available.
6:12 AM 7:15 PM
Last Quarter, 37% visible
METAR MDLR 280200Z 00000KT 9999 FEW018 26/25 Q1016
Pressure 30.01 in
Visibility 6.2 miles
Clouds Few 1800 ft
Heat Index 104 °F
Dew Point 82 °F
Humidity 89%
Rainfall 0.11 in
Snow Depth Not available.
6:12 AM 7:15 PM
Last Quarter, 37% visible
METAR MDLR 280200Z 00000KT 9999 FEW018 26/25 Q1016

10-Day Weather Forecast

No radar image for this location.
×

Almanac

Astronomy

Jul. 27, 2016 Rise Set
Actual Time
Civil Twilight
Nautical Twilight
Astronomical Twilight
Moon
Length of Visible Light
Length of Day
Tomorrow will be .
, % of the Moon is Illuminated

Today's Extremes

Country Highs Country Lows

Community

WunderPhotos

Upload Photos

1,928,012 photos uploaded!

WunderBlog® & News

Nearby

Air Quality

  Air Quality AQ Index Pollutant
Not available.

Snow Depth

Station Depth Elevation

Earthquake Activity

City Distance Mag. Time & Date
Minimum magnitude displayed is 2.5.

Coastal Water Temperatures

Place Temperature

Stations

Nearby Weather Stations

Station Location Temp. Windchill Dew Point Humidity Wind Precip. Elev Updated Type